Time;durP1;ratioP1;P1;durP2;ratioP2;P2;SDS_P1;SDS_P2;PMS_P1;PMS_P2;Temp;Humidity;BMP_temperature;BMP_pressure;BME280_temperature;BME280_humidity;BME280_pressure;Samples;Min_cycle;Max_cycle;Signal;HPM_P1;HPM_P2
2021/03/01 00:01:03;;;;;;;6.72;3.35;;;5.70;46.20;;;;;;2343350;54;20920;-65
2021/03/01 00:03:32;;;;;;;12.85;5.55;;;5.70;46.90;;;;;;2562489;53;20943;-65
2021/03/01 00:05:59;;;;;;;9.50;4.35;;;5.80;46.40;;;;;;2344243;54;21026;-66
2021/03/01 00:08:28;;;;;;;8.02;3.60;;;5.80;46.50;;;;;;2557310;53;20950;-65
2021/03/01 00:10:54;;;;;;;6.95;3.42;;;5.80;46.50;;;;;;2341486;54;20922;-65
2021/03/01 00:13:23;;;;;;;7.20;2.80;;;5.80;46.50;;;;;;2565810;53;21494;-65
2021/03/01 00:15:50;;;;;;;6.10;2.67;;;5.80;46.50;;;;;;2340671;54;20958;-65
2021/03/01 00:18:17;;;;;;;4.80;2.33;;;5.80;46.50;;;;;;2566903;53;21025;-65
2021/03/01 00:20:43;;;;;;;6.22;2.85;;;5.80;46.50;;;;;;2343701;54;20950;-65
2021/03/01 00:23:10;;;;;;;5.07;2.53;;;5.90;46.50;;;;;;2563358;53;21503;-65
2021/03/01 00:25:40;;;;;;;5.80;2.45;;;5.90;46.50;;;;;;2335940;54;20934;-65
2021/03/01 00:28:17;;;;;;;6.07;2.42;;;5.90;46.50;;;;;;2331320;54;20954;-65
2021/03/01 00:30:43;;;;;;;6.47;2.47;;;6.00;46.60;;;;;;2326303;54;20974;-65
2021/03/01 00:33:12;;;;;;;4.82;2.25;;;6.00;46.60;;;;;;2571044;53;20962;-65
2021/03/01 00:35:38;;;;;;;4.80;2.15;;;6.00;46.60;;;;;;2320935;54;20946;-66
2021/03/01 00:38:06;;;;;;;4.70;2.42;;;6.10;46.70;;;;;;2323174;54;21062;-65
2021/03/01 00:40:32;;;;;;;4.07;2.03;;;6.10;46.80;;;;;;2325869;54;20983;-65
2021/03/01 00:42:59;;;;;;;6.22;2.58;;;6.20;46.80;;;;;;2559626;53;21951;-65
2021/03/01 00:45:25;;;;;;;4.97;2.45;;;6.20;46.80;;;;;;2319779;54;20969;-65
2021/03/01 00:47:52;;;;;;;5.22;2.40;;;6.30;46.80;;;;;;2572268;53;21014;-65
2021/03/01 00:50:19;;;;;;;4.85;2.28;;;6.30;46.80;;;;;;2343967;54;21800;-67
2021/03/01 00:52:48;;;;;;;5.75;2.40;;;6.30;46.80;;;;;;2590725;53;21022;-66
2021/03/01 00:55:16;;;;;;;7.12;3.17;;;6.40;46.80;;;;;;2329064;54;20914;-65
2021/03/01 00:57:44;;;;;;;4.00;2.12;;;6.40;46.70;;;;;;2338925;54;20950;-65
2021/03/01 01:00:12;;;;;;;4.20;2.05;;;6.50;46.80;;;;;;2344172;54;20950;-65
2021/03/01 01:02:39;;;;;;;4.50;2.25;;;6.60;46.80;;;;;;2344056;54;24116;-65
2021/03/01 01:05:06;;;;;;;4.72;2.30;;;6.60;46.70;;;;;;2590455;53;20950;-65
2021/03/01 01:07:36;;;;;;;5.32;2.47;;;6.60;46.60;;;;;;2564212;53;21002;-66
2021/03/01 01:10:06;;;;;;;4.20;2.25;;;6.60;46.50;;;;;;2342563;54;21226;-66
2021/03/01 01:12:35;;;;;;;6.22;3.37;;;6.70;46.50;;;;;;2590124;53;21455;-65
2021/03/01 01:15:06;;;;;;;6.10;3.05;;;6.70;46.50;;;;;;2586207;53;21010;-65
2021/03/01 01:17:34;;;;;;;3.85;2.15;;;6.70;46.50;;;;;;2561797;53;22015;-65
2021/03/01 01:20:00;;;;;;;5.18;2.42;;;6.70;46.40;;;;;;2340672;54;21007;-65
2021/03/01 01:22:27;;;;;;;6.62;3.17;;;6.80;46.40;;;;;;2560223;53;21042;-66
2021/03/01 01:24:53;;;;;;;4.62;2.30;;;6.80;46.40;;;;;;2568146;53;21002;-65
2021/03/01 01:27:19;;;;;;;5.25;2.62;;;6.80;46.30;;;;;;2566209;52;21007;-65
2021/03/01 01:29:45;;;;;;;5.62;2.37;;;6.80;46.30;;;;;;2324443;54;21458;-65
2021/03/01 01:32:12;;;;;;;4.90;3.03;;;6.80;46.30;;;;;;2343417;54;20970;-65
2021/03/01 01:34:38;;;;;;;5.43;3.45;;;6.90;46.20;;;;;;2343753;54;21922;-66
2021/03/01 01:37:04;;;;;;;5.57;2.60;;;6.90;46.80;;;;;;2564666;53;20930;-65
2021/03/01 01:39:31;;;;;;;3.95;1.87;;;6.90;46.10;;;;;;2341900;54;20910;-65
2021/03/01 01:41:57;;;;;;;5.43;3.00;;;6.90;46.00;;;;;;2590711;53;20934;-65
2021/03/01 01:44:26;;;;;;;4.65;2.40;;;6.90;46.00;;;;;;2590632;53;21424;-65
2021/03/01 01:46:52;;;;;;;4.72;2.08;;;6.90;45.90;;;;;;2334619;54;20942;-65
2021/03/01 01:49:18;;;;;;;4.00;1.85;;;6.80;45.80;;;;;;2319960;54;21037;-65
2021/03/01 01:51:45;;;;;;;4.85;2.25;;;6.80;45.80;;;;;;2338940;54;20951;-65
2021/03/01 01:54:11;;;;;;;4.28;2.20;;;6.80;45.70;;;;;;2343579;54;21006;-65
2021/03/01 01:56:37;;;;;;;4.18;2.20;;;6.80;45.70;;;;;;2324305;54;20986;-66
2021/03/01 01:59:03;;;;;;;4.60;2.15;;;6.70;45.60;;;;;;2342004;54;20981;-65
2021/03/01 02:01:30;;;;;;;4.35;2.20;;;6.70;45.60;;;;;;2343921;54;21018;-66
2021/03/01 02:05:18;;;;;;;5.82;2.83;;;6.70;45.70;;;;;;2326467;54;20945;-65
2021/03/01 02:07:55;;;;;;;5.15;2.12;;;6.60;45.80;;;;;;2557127;53;21034;-65
2021/03/01 02:13:03;;;;;;;4.93;2.65;;;6.60;45.60;;;;;;2589703;53;20919;-65
2021/03/01 02:17:22;;;;;;;4.32;1.80;;;6.60;45.70;;;;;;2589828;53;20943;-65
2021/03/01 02:19:48;;;;;;;4.47;1.52;;;6.50;45.80;;;;;;2343389;54;20966;-65
2021/03/01 02:22:15;;;;;;;3.75;1.90;;;6.40;45.40;;;;;;2344351;54;20921;-65
2021/03/01 02:25:02;;;;;;;4.20;2.03;;;6.40;45.40;;;;;;2324270;54;20935;-65
2021/03/01 02:27:30;;;;;;;3.37;1.77;;;6.40;45.60;;;;;;2590572;53;20982;-65
2021/03/01 02:30:25;;;;;;;4.18;1.90;;;6.30;45.60;;;;;;2343395;54;20963;-65
2021/03/01 02:32:55;;;;;;;4.85;2.17;;;6.30;45.80;;;;;;2343181;54;20958;-65
2021/03/01 02:35:22;;;;;;;4.57;2.05;;;6.30;45.60;;;;;;2583390;53;20942;-65
2021/03/01 02:37:49;;;;;;;4.28;1.95;;;6.30;45.60;;;;;;2570143;53;20938;-66
2021/03/01 02:40:17;;;;;;;5.00;2.28;;;6.20;45.60;;;;;;2590502;53;21000;-65
2021/03/01 02:42:44;;;;;;;4.15;2.03;;;6.20;46.20;;;;;;2556599;53;20982;-65
2021/03/01 02:45:11;;;;;;;4.35;2.03;;;6.10;45.50;;;;;;2325424;54;20934;-65
2021/03/01 02:47:37;;;;;;;4.57;1.92;;;6.10;45.50;;;;;;2342730;54;20998;-65
2021/03/01 02:50:05;;;;;;;3.50;1.75;;;6.00;45.40;;;;;;2342892;54;21557;-65
2021/03/01 02:52:32;;;;;;;4.60;1.70;;;5.90;45.40;;;;;;2588294;53;20973;-65
2021/03/01 02:54:58;;;;;;;4.65;2.00;;;5.90;45.50;;;;;;2564313;53;20967;-64
2021/03/01 02:57:26;;;;;;;4.62;2.10;;;5.80;45.40;;;;;;2590105;53;20935;-65
2021/03/01 02:59:54;;;;;;;3.92;2.10;;;5.80;45.40;;;;;;2343468;54;20983;-64
2021/03/01 03:02:21;;;;;;;4.00;2.00;;;5.70;45.40;;;;;;2340865;54;21018;-65
2021/03/01 03:04:48;;;;;;;7.47;3.22;;;5.60;45.30;;;;;;2561947;53;21025;-65
2021/03/01 03:07:18;;;;;;;6.57;2.85;;;5.50;45.30;;;;;;2569656;53;20942;-65
2021/03/01 03:09:44;;;;;;;10.70;3.47;;;5.40;45.20;;;;;;2324339;55;20962;-65
2021/03/01 03:12:11;;;;;;;7.87;3.15;;;5.40;45.40;;;;;;2343135;54;20938;-65
2021/03/01 03:14:37;;;;;;;7.30;3.00;;;5.30;45.40;;;;;;2324106;54;21038;-66
2021/03/01 03:17:04;;;;;;;7.25;3.15;;;5.20;45.40;;;;;;2335103;54;20974;-64
2021/03/01 03:19:30;;;;;;;11.38;6.32;;;5.10;45.40;;;;;;2328125;54;20971;-65
2021/03/01 03:21:57;;;;;;;12.43;6.53;;;5.10;45.60;;;;;;2562659;53;21763;-64
2021/03/01 03:24:23;;;;;;;7.87;4.28;;;5.00;45.70;;;;;;2588875;53;21018;-65
2021/03/01 03:26:49;;;;;;;6.10;3.30;;;5.00;45.80;;;;;;2344245;54;20942;-65
2021/03/01 03:29:15;;;;;;;6.95;2.80;;;4.90;45.90;;;;;;2324879;54;21011;-65
2021/03/01 03:31:42;;;;;;;5.15;2.50;;;4.90;46.70;;;;;;2579472;53;20926;-65
2021/03/01 03:34:08;;;;;;;7.87;2.95;;;4.90;46.20;;;;;;2326903;54;21009;-65
2021/03/01 03:36:38;;;;;;;7.82;2.47;;;4.90;46.40;;;;;;2589923;53;21483;-65
2021/03/01 03:39:10;;;;;;;5.60;2.37;;;4.90;46.60;;;;;;2560439;53;20910;-65
2021/03/01 03:41:37;;;;;;;5.70;2.53;;;4.90;46.70;;;;;;2581089;53;20954;-65
2021/03/01 03:44:04;;;;;;;4.90;2.40;;;4.90;46.70;;;;;;2590317;53;20935;-65
2021/03/01 03:46:31;;;;;;;4.30;1.85;;;4.90;46.70;;;;;;2344208;54;20986;-65
2021/03/01 03:48:58;;;;;;;4.28;1.92;;;4.90;46.70;;;;;;2590082;53;20918;-65
2021/03/01 03:51:31;;;;;;;5.35;2.35;;;4.90;46.60;;;;;;2328263;54;21430;-66
2021/03/01 03:54:01;;;;;;;5.10;2.28;;;4.90;46.70;;;;;;2333754;54;22040;-65
2021/03/01 03:56:28;;;;;;;6.20;2.42;;;4.90;46.70;;;;;;2344109;54;20979;-65
2021/03/01 03:59:02;;;;;;;5.45;2.20;;;4.90;46.60;;;;;;2590009;53;21002;-64
2021/03/01 04:01:29;;;;;;;7.35;2.62;;;4.90;46.70;;;;;;2344132;54;21833;-65
2021/03/01 04:03:58;;;;;;;5.18;2.22;;;4.90;46.70;;;;;;2342609;54;20934;-65
2021/03/01 04:06:24;;;;;;;5.12;2.20;;;4.90;46.70;;;;;;2341766;54;21082;-65
2021/03/01 04:08:51;;;;;;;4.82;2.15;;;4.90;47.00;;;;;;2326370;54;21788;-65
2021/03/01 04:11:22;;;;;;;5.80;2.35;;;4.80;46.70;;;;;;2325021;55;20938;-65
2021/03/01 04:13:49;;;;;;;5.45;2.30;;;4.80;46.70;;;;;;2312082;55;21037;-65
2021/03/01 04:16:15;;;;;;;4.55;2.30;;;4.80;46.70;;;;;;2582091;53;21895;-65
2021/03/01 04:18:41;;;;;;;5.43;2.67;;;4.80;46.80;;;;;;2337030;53;21078;-65
2021/03/01 04:21:08;;;;;;;4.35;2.03;;;4.80;46.80;;;;;;2329050;54;20956;-65
2021/03/01 04:23:34;;;;;;;3.50;1.67;;;4.80;46.90;;;;;;2328448;54;20974;-65
2021/03/01 04:26:01;;;;;;;4.35;2.10;;;4.80;46.90;;;;;;2339793;54;21001;-65
2021/03/01 04:28:27;;;;;;;5.05;2.40;;;4.80;46.90;;;;;;2335694;53;20954;-65
2021/03/01 04:30:53;;;;;;;5.72;2.17;;;4.80;46.90;;;;;;2332380;54;20942;-65
2021/03/01 04:33:20;;;;;;;5.75;2.50;;;4.80;46.90;;;;;;2585270;53;21026;-65
2021/03/01 04:35:47;;;;;;;4.75;2.17;;;4.80;47.00;;;;;;2324769;54;20942;-65
2021/03/01 04:38:14;;;;;;;4.82;2.50;;;4.70;47.00;;;;;;2344271;54;20907;-65
2021/03/01 04:40:41;;;;;;;4.43;2.45;;;4.80;47.10;;;;;;2326640;54;20962;-65
2021/03/01 04:43:10;;;;;;;6.70;2.70;;;4.80;47.20;;;;;;2343227;54;21454;-65
2021/03/01 04:45:38;;;;;;;5.32;2.37;;;4.80;47.20;;;;;;2345594;54;21010;-65
2021/03/01 04:48:06;;;;;;;7.10;3.17;;;4.80;47.30;;;;;;2322437;54;21288;-65
2021/03/01 04:50:32;;;;;;;6.32;3.08;;;4.80;47.30;;;;;;2342678;54;20987;-65
2021/03/01 04:52:58;;;;;;;5.15;2.42;;;4.80;47.30;;;;;;2562424;53;20998;-66
2021/03/01 04:55:25;;;;;;;5.22;2.33;;;4.80;47.40;;;;;;2329644;54;20949;-66
2021/03/01 04:57:51;;;;;;;5.57;2.22;;;4.80;47.40;;;;;;2329894;54;21188;-65
2021/03/01 05:00:20;;;;;;;4.95;2.00;;;4.90;47.50;;;;;;2574044;53;21510;-65
2021/03/01 05:02:46;;;;;;;5.53;2.65;;;4.90;47.50;;;;;;2330924;54;21045;-64
2021/03/01 05:05:12;;;;;;;4.55;2.37;;;4.90;47.40;;;;;;2334717;54;20974;-65
2021/03/01 05:07:40;;;;;;;5.22;2.42;;;4.90;47.30;;;;;;2343477;54;21005;-65
2021/03/01 05:10:06;;;;;;;6.60;2.50;;;4.90;47.30;;;;;;2343214;54;20947;-65
2021/03/01 05:12:33;;;;;;;81.40;17.33;;;4.90;47.20;;;;;;2344117;54;21538;-65
2021/03/01 05:14:59;;;;;;;59.80;17.62;;;4.90;47.20;;;;;;2326136;54;21418;-65
2021/03/01 05:17:28;;;;;;;57.10;18.85;;;4.90;47.20;;;;;;2564366;53;20938;-65
2021/03/01 05:19:54;;;;;;;75.18;30.37;;;4.90;47.30;;;;;;2575477;53;21439;-65
2021/03/01 05:22:20;;;;;;;59.17;24.40;;;4.90;47.20;;;;;;2342317;54;20934;-67
2021/03/01 05:24:47;;;;;;;48.03;20.98;;;4.90;47.30;;;;;;2339474;54;20973;-65
2021/03/01 05:27:15;;;;;;;39.92;15.85;;;4.90;47.30;;;;;;2572937;53;20951;-65
2021/03/01 05:29:43;;;;;;;68.40;22.90;;;4.80;47.20;;;;;;2343461;54;21074;-65
2021/03/01 05:32:09;;;;;;;78.87;25.23;;;4.80;47.30;;;;;;2342566;54;20946;-66
2021/03/01 05:34:36;;;;;;;45.97;17.00;;;4.80;47.30;;;;;;2328812;54;20946;-65
2021/03/01 05:37:02;;;;;;;40.92;14.10;;;4.80;47.30;;;;;;2338535;54;21069;-65
2021/03/01 05:39:29;;;;;;;50.88;16.35;;;4.80;47.30;;;;;;2343094;54;20959;-65
2021/03/01 05:41:55;;;;;;;80.40;25.17;;;4.80;47.30;;;;;;2339096;54;21728;-65
2021/03/01 05:44:22;;;;;;;80.43;24.48;;;4.80;47.40;;;;;;2328581;54;20915;-64
2021/03/01 05:46:49;;;;;;;46.13;17.30;;;4.80;47.90;;;;;;2589824;53;20998;-65
2021/03/01 05:49:15;;;;;;;40.70;13.55;;;4.80;48.00;;;;;;2328729;54;21034;-65
2021/03/01 05:51:49;;;;;;;23.90;9.23;;;4.70;47.20;;;;;;2339898;54;21498;-67
2021/03/01 05:54:15;;;;;;;16.45;6.00;;;4.70;47.20;;;;;;2343688;54;20970;-65
2021/03/01 05:56:42;;;;;;;14.25;6.22;;;4.70;47.20;;;;;;2590080;53;20927;-65
2021/03/01 05:59:09;;;;;;;21.12;9.35;;;4.70;47.20;;;;;;2589231;53;20975;-65
2021/03/01 06:01:36;;;;;;;22.02;9.70;;;4.60;47.10;;;;;;2344076;54;20950;-65
2021/03/01 06:04:05;;;;;;;26.30;12.27;;;4.60;47.20;;;;;;2342633;54;21002;-65
2021/03/01 06:06:32;;;;;;;19.58;8.23;;;4.60;47.20;;;;;;2590299;53;20927;-65
2021/03/01 06:09:00;;;;;;;17.98;6.62;;;4.50;47.20;;;;;;2324220;54;20978;-65
2021/03/01 06:11:26;;;;;;;11.48;5.43;;;4.50;47.10;;;;;;2589899;53;21294;-65
2021/03/01 06:13:52;;;;;;;9.40;4.65;;;4.50;47.20;;;;;;2589002;53;21869;-65
2021/03/01 06:16:19;;;;;;;7.90;3.67;;;4.40;47.20;;;;;;2342900;54;20966;-65
2021/03/01 06:18:45;;;;;;;9.77;4.15;;;4.40;47.30;;;;;;2323620;54;21791;-65
2021/03/01 06:21:15;;;;;;;12.15;4.85;;;4.40;47.40;;;;;;2324220;54;21330;-65
2021/03/01 06:23:43;;;;;;;17.10;5.70;;;4.20;47.50;;;;;;2344611;54;21054;-65
2021/03/01 06:26:25;;;;;;;19.83;7.28;;;4.40;47.70;;;;;;2343893;54;20950;-66
2021/03/01 06:28:54;;;;;;;17.73;6.43;;;4.30;47.80;;;;;;2590647;53;21468;-65
2021/03/01 06:32:11;;;;;;;12.15;5.12;;;4.30;47.70;;;;;;2345280;54;20938;-65
2021/03/01 06:34:38;;;;;;;7.70;3.85;;;4.30;48.30;;;;;;2333322;54;20985;-65
2021/03/01 06:37:15;;;;;;;11.27;4.20;;;4.30;47.90;;;;;;2326024;54;20946;-65
2021/03/01 06:39:46;;;;;;;10.23;4.35;;;4.30;48.10;;;;;;2344329;54;21352;-65
2021/03/01 06:42:23;;;;;;;10.48;5.32;;;4.40;48.20;;;;;;2335139;54;20981;-65
2021/03/01 06:45:24;;;;;;;15.65;5.95;;;4.40;48.40;;;;;;2563030;53;21010;-65
2021/03/01 06:47:55;;;;;;;9.73;4.15;;;4.40;48.50;;;;;;2333394;54;21463;-65
2021/03/01 06:50:41;;;;;;;11.27;4.93;;;4.40;48.20;;;;;;2578434;52;21075;-65
2021/03/01 06:53:17;;;;;;;12.18;4.75;;;4.50;48.60;;;;;;2590624;53;21014;-64
2021/03/01 06:56:14;;;;;;;11.57;4.35;;;4.40;48.50;;;;;;2563047;53;21035;-67
2021/03/01 06:58:44;;;;;;;12.95;4.60;;;4.50;48.70;;;;;;2328699;54;21010;-65
2021/03/01 07:01:15;;;;;;;11.70;6.07;;;4.50;48.50;;;;;;2538665;54;20934;-65
2021/03/01 07:03:43;;;;;;;11.63;5.53;;;4.50;48.50;;;;;;2325249;54;20977;-66
2021/03/01 07:06:09;;;;;;;14.40;5.90;;;4.50;48.40;;;;;;2331898;54;20922;-65
2021/03/01 07:08:54;;;;;;;10.40;5.07;;;4.50;48.40;;;;;;2588798;53;20986;-65
2021/03/01 07:11:28;;;;;;;24.00;7.28;;;4.60;48.70;;;;;;2341572;54;20950;-65
2021/03/01 07:14:27;;;;;;;21.30;6.70;;;4.60;48.50;;;;;;2327775;54;21022;-65
2021/03/01 07:16:58;;;;;;;17.55;6.30;;;4.60;48.90;;;;;;2329657;54;21061;-65
2021/03/01 07:19:45;;;;;;;15.02;6.10;;;4.60;48.60;;;;;;2585435;53;21450;-65
2021/03/01 07:22:13;;;;;;;15.00;6.80;;;4.60;48.80;;;;;;2562302;53;20995;-65
2021/03/01 07:24:41;;;;;;;18.45;6.22;;;4.50;48.50;;;;;;2323775;54;20981;-65
2021/03/01 07:27:10;;;;;;;14.98;6.70;;;4.60;48.60;;;;;;2570931;53;20965;-65
2021/03/01 07:29:39;;;;;;;14.05;6.87;;;4.60;48.70;;;;;;2334086;54;20958;-65
2021/03/01 07:32:06;;;;;;;14.15;7.05;;;4.60;48.80;;;;;;2566652;53;21415;-65
2021/03/01 07:34:35;;;;;;;14.18;6.90;;;4.60;48.90;;;;;;2343111;54;20958;-65
2021/03/01 07:37:03;;;;;;;13.90;6.35;;;4.60;48.90;;;;;;2323876;54;21065;-65
2021/03/01 07:39:31;;;;;;;14.07;6.75;;;4.60;49.00;;;;;;2337545;54;20970;-65
2021/03/01 07:41:57;;;;;;;13.68;6.12;;;4.60;49.00;;;;;;2564944;53;20979;-65
2021/03/01 07:44:28;;;;;;;12.60;5.87;;;4.60;49.00;;;;;;2568796;53;21020;-65
2021/03/01 07:46:54;;;;;;;15.48;6.37;;;4.70;49.30;;;;;;2331612;54;21006;-65
2021/03/01 07:49:39;;;;;;;13.32;6.00;;;4.70;49.30;;;;;;2327340;54;20935;-65
2021/03/01 07:52:05;;;;;;;14.10;6.43;;;4.70;49.50;;;;;;2342993;54;20959;-65
2021/03/01 07:54:55;;;;;;;14.52;6.05;;;4.80;49.40;;;;;;2324809;54;21030;-65
2021/03/01 07:57:26;;;;;;;15.57;7.18;;;4.80;49.60;;;;;;2550531;53;20915;-64
2021/03/01 07:59:52;;;;;;;12.73;7.30;;;4.90;49.50;;;;;;2335569;54;20938;-64
2021/03/01 08:02:31;;;;;;;16.58;7.18;;;4.90;49.50;;;;;;2562330;53;20938;-65
2021/03/01 08:04:59;;;;;;;16.15;7.00;;;5.00;49.70;;;;;;2589262;53;21074;-66
2021/03/01 08:07:39;;;;;;;12.93;6.30;;;5.00;49.60;;;;;;2590372;53;20970;-65
2021/03/01 08:10:09;;;;;;;11.27;5.85;;;5.10;49.90;;;;;;2590547;53;21025;-65
2021/03/01 08:12:59;;;;;;;11.18;5.32;;;5.10;49.70;;;;;;2323313;54;20954;-65
2021/03/01 08:15:27;;;;;;;11.57;5.37;;;5.20;50.10;;;;;;2344559;54;21022;-64
2021/03/01 08:17:53;;;;;;;10.70;5.87;;;5.30;49.80;;;;;;2561831;53;21213;-65
2021/03/01 08:20:27;;;;;;;13.40;6.03;;;5.30;49.80;;;;;;2343938;54;20926;-65
2021/03/01 08:23:55;;;;;;;10.75;5.80;;;5.40;50.10;;;;;;2323638;55;20938;-65
2021/03/01 08:26:54;;;;;;;12.27;6.10;;;5.50;50.40;;;;;;2343439;54;21786;-65
2021/03/01 08:29:20;;;;;;;9.38;5.12;;;5.60;50.90;;;;;;2325885;54;20918;-65
2021/03/01 08:31:47;;;;;;;10.13;5.50;;;5.60;50.00;;;;;;2589655;53;21002;-66
2021/03/01 08:34:22;;;;;;;11.70;5.40;;;5.70;50.10;;;;;;2326316;54;21009;-65
2021/03/01 08:36:50;;;;;;;9.23;5.30;;;5.80;50.30;;;;;;2562045;53;21070;-65
2021/03/01 08:39:16;;;;;;;12.77;6.10;;;5.90;50.30;;;;;;2338659;54;20990;-65
2021/03/01 08:41:43;;;;;;;11.00;5.37;;;6.00;50.60;;;;;;2557326;53;20966;-65
2021/03/01 08:44:16;;;;;;;9.43;4.93;;;6.20;51.40;;;;;;2337286;54;20895;-65
2021/03/01 08:46:43;;;;;;;9.65;5.10;;;6.50;52.70;;;;;;2323270;54;20998;-65
2021/03/01 08:49:09;;;;;;;8.63;4.62;;;6.90;53.80;;;;;;2563642;52;21526;-65
2021/03/01 08:51:47;;;;;;;8.85;5.28;;;7.40;54.80;;;;;;2325667;54;20978;-66
2021/03/01 08:54:13;;;;;;;9.90;5.80;;;7.90;55.30;;;;;;2558998;53;20958;-65
2021/03/01 08:56:39;;;;;;;24.73;11.93;;;8.50;55.60;;;;;;2327546;54;21214;-66
2021/03/01 08:59:16;;;;;;;18.20;9.60;;;9.00;55.60;;;;;;2334069;54;20926;-65
2021/03/01 09:01:49;;;;;;;12.00;6.55;;;9.60;55.60;;;;;;2326797;54;21455;-66
2021/03/01 09:04:15;;;;;;;12.10;6.57;;;10.20;54.60;;;;;;2335840;54;21017;-66
2021/03/01 09:06:43;;;;;;;8.40;5.32;;;10.70;54.20;;;;;;2589927;53;21779;-66
2021/03/01 09:09:09;;;;;;;9.98;5.30;;;11.20;53.40;;;;;;2590160;53;21957;-66
2021/03/01 09:11:36;;;;;;;7.90;4.97;;;11.60;52.60;;;;;;2590737;53;21025;-66
2021/03/01 09:14:03;;;;;;;8.90;5.32;;;12.00;51.80;;;;;;2562595;53;20914;-66
2021/03/01 09:16:31;;;;;;;8.30;5.05;;;12.20;50.60;;;;;;2563437;53;20914;-66
2021/03/01 09:19:08;;;;;;;8.45;5.07;;;12.30;49.70;;;;;;2344093;54;21278;-66
2021/03/01 09:21:40;;;;;;;8.65;5.35;;;12.40;48.70;;;;;;2589964;53;21436;-66
2021/03/01 09:24:13;;;;;;;8.93;5.30;;;12.40;48.40;;;;;;2334797;54;21005;-66
2021/03/01 09:26:42;;;;;;;;;;;12.30;48.00;;;;;;2334365;54;21041;-66
2021/03/01 09:29:10;;;;;;;7.18;4.25;;;12.30;48.20;;;;;;2572063;53;20099;-66
2021/03/01 09:31:51;;;;;;;8.75;5.07;;;12.30;48.60;;;;;;2344290;54;20967;-66
2021/03/01 09:34:17;;;;;;;9.02;5.50;;;12.30;48.80;;;;;;2343828;54;20989;-66
2021/03/01 09:36:50;;;;;;;8.95;5.30;;;12.40;49.30;;;;;;2590577;53;20943;-66
2021/03/01 09:39:21;;;;;;;8.10;5.20;;;12.50;49.90;;;;;;2338798;54;20970;-70
2021/03/01 09:41:48;;;;;;;9.98;5.10;;;12.80;50.20;;;;;;2573214;53;20954;-70
2021/03/01 09:44:24;;;;;;;9.43;5.22;;;13.10;50.70;;;;;;2343840;54;21025;-68
2021/03/01 09:46:54;;;;;;;9.05;5.40;;;13.50;50.40;;;;;;2343465;54;21030;-70
2021/03/01 09:49:20;;;;;;;10.23;5.32;;;13.90;50.60;;;;;;2344011;54;20922;-67
2021/03/01 09:51:52;;;;;;;9.73;5.25;;;14.30;50.40;;;;;;2343903;54;21069;-68
2021/03/01 09:54:23;;;;;;;8.23;4.80;;;14.70;50.30;;;;;;2326236;54;20974;-67
2021/03/01 09:56:54;;;;;;;7.18;4.80;;;15.00;50.00;;;;;;2578473;52;20942;-67
2021/03/01 09:59:41;;;;;;;8.38;5.18;;;15.30;49.60;;;;;;2573895;53;20974;-67
2021/03/01 10:02:20;;;;;;;7.72;4.68;;;15.60;48.50;;;;;;2344298;54;21010;-69
2021/03/01 10:04:47;;;;;;;7.37;4.57;;;15.90;48.20;;;;;;2324740;54;21013;-67
2021/03/01 10:07:24;;;;;;;7.85;5.37;;;16.00;48.20;;;;;;2344280;54;20942;-67
2021/03/01 10:09:50;;;;;;;8.68;5.37;;;16.20;47.80;;;;;;2590729;53;20946;-68
2021/03/01 10:12:17;;;;;;;9.45;5.50;;;16.30;47.80;;;;;;2573566;53;20934;-67
2021/03/01 10:14:45;;;;;;;10.20;5.87;;;16.50;47.90;;;;;;2323983;54;20946;-68
2021/03/01 10:17:28;;;;;;;9.60;5.03;;;16.60;47.90;;;;;;2339180;54;21539;-66
2021/03/01 10:20:01;;;;;;;;;;;16.80;47.60;;;;;;2337611;54;21750;-67
2021/03/01 10:22:27;;;;;;;7.85;4.85;;;17.00;47.50;;;;;;2573919;53;20430;-67
2021/03/01 10:24:53;;;;;;;8.80;5.43;;;17.20;48.50;;;;;;2344010;54;20959;-67
2021/03/01 10:27:20;;;;;;;8.38;4.95;;;17.40;48.30;;;;;;2333213;54;21438;-67
2021/03/01 10:29:49;;;;;;;8.32;5.30;;;17.60;48.20;;;;;;2572192;53;21110;-70
2021/03/01 10:32:20;;;;;;;7.35;4.95;;;17.70;47.80;;;;;;2323163;54;20919;-69
2021/03/01 10:34:46;;;;;;;7.55;5.18;;;17.90;47.60;;;;;;2343726;54;21154;-68
2021/03/01 10:37:13;;;;;;;6.72;4.68;;;18.00;47.70;;;;;;2343701;54;21423;-68
2021/03/01 10:39:49;;;;;;;7.80;5.00;;;18.20;47.60;;;;;;2590408;53;20954;-69
2021/03/01 10:42:19;;;;;;;9.07;5.15;;;18.40;47.20;;;;;;2589933;53;20915;-68
2021/03/01 10:44:47;;;;;;;8.20;5.20;;;18.60;47.70;;;;;;2342264;54;20998;-67
2021/03/01 10:47:33;;;;;;;7.47;5.20;;;18.80;47.30;;;;;;2569574;53;21002;-67
2021/03/01 10:50:21;;;;;;;7.07;4.60;;;19.00;47.00;;;;;;2568999;53;21161;-67
2021/03/01 10:52:48;;;;;;;7.80;4.80;;;19.20;45.40;;;;;;2344017;54;20943;-69
2021/03/01 10:55:14;;;;;;;8.45;5.18;;;19.30;45.90;;;;;;2343732;54;20943;-67
2021/03/01 10:57:40;;;;;;;7.10;4.95;;;19.40;45.40;;;;;;2344410;54;20947;-67
2021/03/01 11:00:08;;;;;;;8.27;5.20;;;19.40;44.80;;;;;;2564908;53;21538;-70
2021/03/01 11:02:35;;;;;;;6.47;4.35;;;19.50;44.40;;;;;;2332083;54;21044;-71
2021/03/01 11:05:01;;;;;;;7.43;4.80;;;19.50;43.90;;;;;;2344222;54;21548;-69
2021/03/01 11:07:28;;;;;;;8.50;5.18;;;19.40;43.40;;;;;;2590595;53;21447;-67
2021/03/01 11:09:54;;;;;;;7.57;5.07;;;19.40;43.10;;;;;;2343575;54;20986;-67
2021/03/01 11:12:21;;;;;;;8.50;5.43;;;19.40;42.80;;;;;;2329031;54;21449;-68
2021/03/01 11:14:47;;;;;;;6.97;4.37;;;19.30;42.40;;;;;;2331221;54;20957;-69
2021/03/01 11:17:14;;;;;;;8.15;4.55;;;19.20;41.90;;;;;;2332775;54;20959;-69
2021/03/01 11:19:40;;;;;;;7.07;4.53;;;19.10;41.70;;;;;;2588807;53;20942;-70
2021/03/01 11:22:06;;;;;;;7.47;4.70;;;19.10;41.60;;;;;;2571972;53;21081;-69
2021/03/01 11:24:33;;;;;;;8.00;4.53;;;19.00;41.50;;;;;;2322681;54;20946;-67
2021/03/01 11:26:59;;;;;;;8.70;4.47;;;19.00;41.50;;;;;;2343601;54;20962;-68
2021/03/01 11:29:26;;;;;;;8.05;5.03;;;18.90;41.40;;;;;;2560048;53;20954;-71
2021/03/01 11:31:52;;;;;;;7.00;4.62;;;18.90;41.40;;;;;;2331560;54;20910;-70
2021/03/01 11:34:19;;;;;;;7.53;4.10;;;18.90;41.20;;;;;;2332979;54;20994;-67
2021/03/01 11:36:46;;;;;;;6.70;4.30;;;18.90;41.00;;;;;;2589341;53;20946;-67
2021/03/01 11:39:14;;;;;;;7.35;4.80;;;18.80;41.00;;;;;;2343503;54;20932;-67
2021/03/01 11:41:40;;;;;;;6.40;4.45;;;18.90;41.30;;;;;;2343224;54;20994;-67
2021/03/01 11:44:09;;;;;;;8.55;4.68;;;18.90;41.20;;;;;;2343999;54;21006;-67
2021/03/01 11:46:37;;;;;;;7.95;4.30;;;18.90;41.20;;;;;;2588174;53;20943;-67
2021/03/01 11:49:04;;;;;;;6.62;4.15;;;18.90;41.10;;;;;;2326812;54;20939;-67
2021/03/01 11:51:30;;;;;;;7.70;4.85;;;19.00;41.30;;;;;;2586693;53;20938;-67
2021/03/01 11:53:57;;;;;;;7.43;4.75;;;19.10;41.30;;;;;;2590718;53;21010;-67
2021/03/01 11:56:23;;;;;;;6.87;4.37;;;19.20;41.10;;;;;;2343213;54;21388;-67
2021/03/01 11:58:49;;;;;;;6.37;4.12;;;19.20;41.00;;;;;;2343453;54;20979;-67
2021/03/01 12:01:15;;;;;;;6.65;4.30;;;19.40;41.10;;;;;;2343514;54;21330;-67
2021/03/01 12:03:44;;;;;;;8.52;4.10;;;19.50;41.00;;;;;;2590065;53;20943;-67
2021/03/01 12:06:11;;;;;;;8.13;4.40;;;19.60;40.60;;;;;;2343914;54;21443;-67
2021/03/01 12:08:38;;;;;;;7.78;4.53;;;19.60;40.50;;;;;;2573197;53;20970;-67
2021/03/01 12:11:05;;;;;;;6.10;3.75;;;19.60;40.50;;;;;;2329462;54;20999;-70
2021/03/01 12:13:34;;;;;;;7.72;4.40;;;19.70;40.50;;;;;;2579828;53;21062;-70
2021/03/01 12:16:00;;;;;;;7.65;4.22;;;19.70;40.00;;;;;;2321856;54;21499;-67
2021/03/01 12:18:27;;;;;;;7.68;4.82;;;19.70;39.80;;;;;;2339461;54;21001;-67
2021/03/01 12:20:53;;;;;;;6.22;4.32;;;19.60;39.40;;;;;;2555374;53;21507;-67
2021/03/01 12:23:19;;;;;;;6.85;4.22;;;19.50;39.20;;;;;;2331814;54;20974;-67
2021/03/01 12:25:46;;;;;;;7.57;4.35;;;19.40;39.00;;;;;;2562553;53;20930;-68
2021/03/01 12:28:12;;;;;;;7.60;4.57;;;19.30;39.00;;;;;;2324167;54;21828;-67
2021/03/01 12:30:38;;;;;;;7.00;4.25;;;19.30;39.00;;;;;;2343219;54;21010;-76
2021/03/01 12:33:06;;;;;;;6.82;4.22;;;19.30;39.50;;;;;;2333731;54;20962;-69
2021/03/01 12:35:32;;;;;;;6.90;3.92;;;19.30;39.00;;;;;;2577497;53;20938;-68
2021/03/01 12:37:59;;;;;;;7.53;4.47;;;19.00;38.50;;;;;;2342583;54;21503;-70
2021/03/01 12:40:29;;;;;;;6.18;4.15;;;19.10;38.40;;;;;;2343939;54;20978;-71
2021/03/01 12:42:57;;;;;;;7.07;4.25;;;19.10;38.40;;;;;;2343810;54;21879;-70
2021/03/01 12:45:24;;;;;;;6.55;4.00;;;19.00;38.40;;;;;;2324744;54;20907;-72
2021/03/01 12:47:50;;;;;;;7.55;4.00;;;19.00;38.40;;;;;;2343366;54;20958;-71
2021/03/01 12:50:17;;;;;;;6.60;3.83;;;19.00;38.50;;;;;;2337830;54;20922;-67
2021/03/01 12:52:44;;;;;;;6.97;4.40;;;19.00;38.80;;;;;;2573337;53;20934;-69
2021/03/01 12:55:13;;;;;;;8.05;4.22;;;19.10;39.20;;;;;;2565339;53;21010;-70
2021/03/01 12:57:42;;;;;;;8.43;4.03;;;19.20;39.40;;;;;;2342020;54;20981;-72
2021/03/01 13:00:10;;;;;;;7.70;3.58;;;19.30;39.60;;;;;;2345362;54;21427;-71
2021/03/01 13:02:37;;;;;;;5.95;3.65;;;19.40;39.80;;;;;;2564777;53;21757;-73
2021/03/01 13:05:05;;;;;;;7.70;4.05;;;19.50;39.70;;;;;;2343693;54;20919;-71
2021/03/01 13:07:31;;;;;;;5.95;3.72;;;19.70;39.40;;;;;;2324771;54;21853;-71